Time;durP1;ratioP1;P1;durP2;ratioP2;P2;SDS_P1;SDS_P2;PMS_P1;PMS_P2;Temp;Humidity;BMP_temperature;BMP_pressure;BME280_temperature;BME280_humidity;BME280_pressure;Samples;Min_cycle;Max_cycle;Signal;HPM_P1;HPM_P2
2024/04/16 00:03:34;;;;;;;18.20;9.80;;;;;;;10.33;86.93;96833.58;436100;1252;99291;-41
2024/04/16 00:13:39;;;;;;;13.50;7.70;;;;;;;10.56;87.41;96826.34;435796;1253;108794;-40
2024/04/16 00:23:44;;;;;;;12.60;6.70;;;;;;;10.75;87.62;96825.70;436008;1253;99231;-41
2024/04/16 00:33:49;;;;;;;16.80;6.10;;;;;;;10.86;87.89;96809.38;435789;1253;111362;-41
2024/04/16 00:43:54;;;;;;;7.50;5.40;;;;;;;10.93;87.95;96818.86;435797;1248;108991;-41
2024/04/16 00:53:59;;;;;;;7.60;4.70;;;;;;;10.93;87.99;96829.23;435955;1248;99266;-40
2024/04/16 01:04:05;;;;;;;7.70;3.90;;;;;;;10.89;87.76;96840.35;435655;1247;109653;-41
2024/04/16 01:14:15;;;;;;;4.90;3.20;;;;;;;10.82;88.03;96835.52;436427;1248;99253;31
2024/04/16 01:24:23;;;;;;;9.40;3.50;;;;;;;10.70;87.35;96832.23;437157;1250;112742;-42
2024/04/16 01:34:28;;;;;;;6.70;3.30;;;;;;;10.46;87.18;96817.52;437106;1250;108523;-40
2024/04/16 01:44:33;;;;;;;16.50;4.10;;;;;;;10.28;87.01;96804.70;437261;1250;99224;-41
2024/04/16 01:54:38;;;;;;;5.60;2.70;;;;;;;10.20;86.86;96804.58;437302;1247;109040;-41
2024/04/16 02:04:46;;;;;;;6.00;2.20;;;;;;;10.07;86.57;96821.73;437175;1263;99259;-41
2024/04/16 02:14:52;;;;;;;7.80;3.10;;;;;;;9.86;86.26;96838.11;437350;1250;112436;-41
2024/04/16 02:24:56;;;;;;;7.10;5.50;;;;;;;9.71;86.04;96840.10;437125;1250;109577;-41
2024/04/16 02:35:01;;;;;;;8.90;4.00;;;;;;;9.52;85.66;96850.42;437359;1251;99224;-41
2024/04/16 02:45:07;;;;;;;7.80;2.90;;;;;;;9.23;84.55;96877.50;437414;1250;107789;-41
2024/04/16 02:55:12;;;;;;;9.00;2.60;;;;;;;8.72;83.34;96901.73;437633;1247;99327;-44
2024/04/16 03:05:18;;;;;;;6.50;1.80;;;;;;;8.45;82.84;96906.89;437401;1250;110948;-42
2024/04/16 03:15:24;;;;;;;8.20;4.10;;;;;;;8.40;82.51;96914.31;437351;1250;107580;-41
2024/04/16 03:25:29;;;;;;;3.30;1.80;;;;;;;8.31;82.38;96953.38;437434;1247;99404;-41
2024/04/16 03:35:37;;;;;;;11.40;2.20;;;;;;;8.17;82.03;96960.71;437326;1250;108382;-41
2024/04/16 03:45:42;;;;;;;3.70;3.00;;;;;;;8.10;81.65;96983.06;437401;1250;99231;-42
2024/04/16 03:55:48;;;;;;;5.70;1.90;;;;;;;7.90;80.80;96980.48;437487;1247;112313;-42
2024/04/16 04:05:53;;;;;;;1.90;1.00;;;;;;;7.56;80.13;97009.16;437421;1250;108818;-40
2024/04/16 04:16:01;;;;;;;5.60;1.30;;;;;;;7.26;79.40;97060.50;437445;1247;98025;-41
2024/04/16 04:26:06;;;;;;;5.10;0.40;;;;;;;7.01;78.64;97071.52;437435;1250;109151;-40
2024/04/16 04:36:12;;;;;;;1.60;0.80;;;;;;;6.80;78.03;97091.13;437524;1247;99722;-40
2024/04/16 04:46:18;;;;;;;2.50;1.30;;;;;;;6.60;77.61;97085.95;437469;1250;112220;-40
2024/04/16 04:56:28;;;;;;;4.20;1.10;;;;;;;6.42;77.12;97114.11;437573;1250;108284;-41
2024/04/16 05:06:33;;;;;;;3.20;1.30;;;;;;;6.37;77.10;97129.10;437564;1250;99138;-40
2024/04/16 05:16:38;;;;;;;3.70;1.40;;;;;;;6.23;77.12;97148.57;437464;1250;108787;-40
2024/04/16 05:26:44;;;;;;;5.40;1.70;;;;;;;6.49;77.21;97174.86;437342;1250;99316;-41
2024/04/16 05:36:49;;;;;;;4.50;1.90;;;;;;;7.19;76.69;97194.13;437374;1248;112057;-40
2024/04/16 05:46:55;;;;;;;3.50;1.90;;;;;;;7.37;76.01;97202.08;437004;1250;406062;-40
2024/04/16 05:57:00;;;;;;;3.40;1.30;;;;;;;8.93;75.32;97178.02;437355;1247;99225;-42
2024/04/16 06:07:05;;;;;;;3.30;2.30;;;;;;;9.91;72.27;97153.13;437391;1250;111854;-41
2024/04/16 06:17:11;;;;;;;2.30;1.70;;;;;;;9.65;69.67;97147.50;437395;1250;108738;-41
2024/04/16 06:27:16;;;;;;;5.90;2.40;;;;;;;9.48;67.92;97173.45;437571;1248;99217;-40
2024/04/16 06:37:22;;;;;;;6.90;1.90;;;;;;;8.75;67.64;97200.94;437382;1250;108592;-40
2024/04/16 06:47:27;;;;;;;2.50;1.50;;;;;;;9.38;68.76;97188.84;437274;1246;98653;-40
2024/04/16 06:57:33;;;;;;;2.90;1.80;;;;;;;10.82;67.01;97234.82;437298;1250;111429;-41
2024/04/16 07:07:42;;;;;;;3.90;1.70;;;;;;;9.67;65.25;97237.35;437276;1250;109265;-41
2024/04/16 07:17:47;;;;;;;1.80;1.20;;;;;;;8.93;65.55;97238.70;437502;1248;99211;-41
2024/04/16 07:27:52;;;;;;;3.60;1.30;;;;;;;8.43;65.26;97219.01;437362;1247;108124;-40
2024/04/16 07:37:57;;;;;;;5.10;2.30;;;;;;;8.21;65.90;97234.15;437292;1248;99359;-42
2024/04/16 07:48:03;;;;;;;6.30;2.00;;;;;;;8.00;66.31;97225.83;437666;1247;112202;-40
2024/04/16 07:58:08;;;;;;;3.60;1.90;;;;;;;8.10;66.41;97270.90;437364;1247;108613;-40
2024/04/16 08:08:14;;;;;;;3.80;1.30;;;;;;;8.37;66.37;97275.79;437515;1247;98698;-40
2024/04/16 08:18:27;;;;;;;6.30;4.20;;;;;;;8.53;66.17;97264.31;437495;1248;112090;-40
2024/04/16 08:28:32;;;;;;;3.30;1.90;;;;;;;8.67;65.99;97260.39;437379;1247;108463;-41
2024/04/16 08:38:40;;;;;;;3.20;1.50;;;;;;;8.99;65.73;97259.11;437378;1247;99194;-40
2024/04/16 08:49:10;;;;;;;5.10;1.20;;;;;;;9.38;64.39;97250.88;437361;1247;111299;-40
2024/04/16 08:59:19;;;;;;;3.70;1.30;;;;;;;9.49;63.63;97248.45;437415;1251;107606;-42
2024/04/16 09:09:23;;;;;;;;;;;;;;;9.70;62.91;97252.67;437353;1258;98810;-42
2024/04/16 09:19:28;;;;;;;5.50;1.00;;;;;;;9.63;61.53;97227.04;437349;1250;112139;-41
2024/04/16 09:29:33;;;;;;;2.40;1.10;;;;;;;9.86;62.04;97252.11;437354;1250;108569;-41
2024/04/16 09:39:42;;;;;;;4.00;1.10;;;;;;;10.00;61.22;97268.91;437521;1251;98011;-41
2024/04/16 09:49:50;;;;;;;3.00;0.80;;;;;;;9.78;59.90;97241.47;437532;1260;108742;-41
2024/04/16 10:00:16;;;;;;;1.90;1.00;;;;;;;9.66;59.79;97221.98;437383;1247;99247;-43
2024/04/16 10:10:22;;;;;;;2.60;1.40;;;;;;;9.62;60.23;97219.91;437232;1250;112201;-41
2024/04/16 10:20:30;;;;;;;3.70;1.90;;;;;;;9.67;60.00;97243.14;437460;1251;108581;-41
2024/04/16 10:30:36;;;;;;;1.70;0.90;;;;;;;9.74;59.45;97235.18;437306;1250;99208;-41
2024/04/16 10:40:55;;;;;;;8.40;1.00;;;;;;;9.65;58.25;97268.42;437515;1259;108700;-40
2024/04/16 10:51:00;;;;;;;8.20;1.30;;;;;;;9.80;58.60;97252.73;437466;1248;99191;-40
2024/04/16 11:01:09;;;;;;;4.30;1.40;;;;;;;10.16;58.69;97257.13;437271;1250;112223;-41
2024/04/16 11:11:15;;;;;;;5.90;3.10;;;;;;;10.49;58.04;97276.10;437315;1251;107700;-42
2024/04/16 11:21:25;;;;;;;2.20;1.40;;;;;;;10.52;57.12;97254.43;437469;1251;99246;-41
2024/04/16 11:31:31;;;;;;;3.30;1.90;;;;;;;10.75;57.57;97237.58;437487;1248;108626;-41
2024/04/16 11:41:36;;;;;;;3.50;1.20;;;;;;;10.94;56.93;97246.15;437383;1260;98808;-41
2024/04/16 11:51:41;;;;;;;4.40;1.30;;;;;;;10.94;55.74;97244.23;437311;1253;112741;-41
2024/04/16 12:01:46;;;;;;;6.10;2.20;;;;;;;10.88;55.16;97234.94;437365;1250;109679;-41
2024/04/16 12:11:51;;;;;;;5.40;1.50;;;;;;;10.91;55.48;97249.27;437451;1252;99104;-41
2024/04/16 12:21:56;;;;;;;2.60;1.70;;;;;;;10.95;53.80;97247.84;437443;1250;109380;-42
2024/04/16 12:32:02;;;;;;;2.40;1.10;;;;;;;11.07;53.99;97222.52;437459;1247;98021;-40
2024/04/16 12:42:12;;;;;;;2.40;1.20;;;;;;;11.02;53.17;97217.14;437369;1250;112214;-40
2024/04/16 12:52:41;;;;;;;1.50;0.90;;;;;;;11.12;53.36;97199.63;437304;1251;108783;-41
2024/04/16 13:02:47;;;;;;;3.00;1.20;;;;;;;11.25;53.60;97191.02;437413;1247;99240;-40
2024/04/16 13:12:57;;;;;;;3.40;1.00;;;;;;;11.40;53.07;97199.77;437230;1249;107685;-41
2024/04/16 13:23:02;;;;;;;3.90;1.30;;;;;;;11.69;53.77;97194.36;437302;1250;98004;-41
2024/04/16 13:33:07;;;;;;;2.80;1.10;;;;;;;11.63;53.01;97165.69;437437;1248;111970;-43
2024/04/16 13:43:13;;;;;;;6.30;2.30;;;;;;;11.68;52.40;97180.39;437357;1250;109469;-40
2024/04/16 13:53:18;;;;;;;9.50;1.60;;;;;;;11.43;51.91;97192.23;437273;1251;99195;-44
2024/04/16 14:03:23;;;;;;;5.10;1.10;;;;;;;10.51;53.59;97253.84;437300;1251;108167;-41
2024/04/16 14:13:28;;;;;;;4.70;1.70;;;;;;;8.15;58.84;97284.45;437414;1248;99221;-41
2024/04/16 14:23:34;;;;;;;4.60;2.20;;;;;;;7.25;62.21;97268.23;437289;1248;112840;-40
2024/04/16 14:33:40;;;;;;;2.70;1.50;;;;;;;7.78;63.15;97254.03;437125;1248;108349;-42
2024/04/16 14:55:09;;;;;;;1.50;0.80;;;;;;;8.78;64.15;97307.48;437439;1248;109516;-41
2024/04/16 15:05:40;;;;;;;2.20;1.50;;;;;;;7.84;65.66;97313.63;437356;1248;99352;-39
2024/04/16 15:15:53;;;;;;;1.60;1.00;;;;;;;7.37;66.51;97303.76;437355;1248;112406;-41
2024/04/16 15:25:59;;;;;;;1.50;1.10;;;;;;;7.01;66.87;97251.84;437242;1251;108563;-40
2024/04/16 15:36:05;;;;;;;5.80;2.30;;;;;;;6.98;67.07;97233.99;437108;1250;99243;-42
2024/04/16 15:46:11;;;;;;;18.90;9.50;;;;;;;7.05;67.38;97239.51;437413;1250;108674;-41
2024/04/16 15:56:20;;;;;;;13.50;7.00;;;;;;;7.04;67.88;97243.95;437482;1251;99197;-40
2024/04/16 16:06:25;;;;;;;8.80;4.40;;;;;;;7.03;68.10;97239.89;437413;1247;112248;-41
2024/04/16 16:16:30;;;;;;;9.50;5.00;;;;;;;7.02;68.46;97227.52;437320;1248;108520;-40
2024/04/16 16:26:36;;;;;;;9.10;4.90;;;;;;;7.14;68.76;97217.19;437351;1250;99243;-40
2024/04/16 16:36:41;;;;;;;8.70;4.30;;;;;;;7.39;69.03;97209.08;437253;1251;111811;-40
2024/04/16 16:46:46;;;;;;;11.70;6.20;;;;;;;7.34;69.08;97193.06;437396;1250;108219;-42
2024/04/16 16:56:51;;;;;;;11.00;6.70;;;;;;;7.08;69.35;97173.54;437427;1250;99212;-40
2024/04/16 17:06:55;;;;;;;13.60;7.50;;;;;;;6.80;69.51;97175.13;437287;1247;108531;-40
2024/04/16 17:17:01;;;;;;;13.70;6.40;;;;;;;6.63;69.90;97178.42;437142;1251;99207;-41
2024/04/16 17:27:07;;;;;;;12.00;5.80;;;;;;;6.60;70.07;97175.25;437326;1247;112265;-40
2024/04/16 17:37:13;;;;;;;11.90;7.50;;;;;;;6.43;70.36;97175.52;437153;1250;108572;-41
2024/04/16 17:47:18;;;;;;;16.50;8.10;;;;;;;6.28;70.55;97168.13;436870;1250;387528;-41
2024/04/16 17:57:27;;;;;;;11.90;7.10;;;;;;;6.06;70.67;97176.05;437211;1250;108919;-40
2024/04/16 18:07:36;;;;;;;17.60;8.80;;;;;;;5.74;70.84;97173.50;437270;1246;99247;-42
2024/04/16 18:17:41;;;;;;;11.30;6.50;;;;;;;5.59;71.19;97197.96;437389;1250;112442;-41
2024/04/16 18:27:46;;;;;;;15.20;8.70;;;;;;;5.53;71.34;97208.61;437220;1247;108123;-40
2024/04/16 18:37:52;;;;;;;18.50;10.00;;;;;;;5.40;71.61;97218.45;437174;1250;99234;-41
2024/04/16 18:47:57;;;;;;;35.80;16.50;;;;;;;5.28;71.91;97218.68;437344;1260;109212;-41
2024/04/16 18:58:03;;;;;;;32.30;16.90;;;;;;;5.09;71.98;97216.70;437548;1250;99350;-40
2024/04/16 19:08:11;;;;;;;39.10;18.40;;;;;;;4.81;72.30;97206.63;437322;1248;112434;-40
2024/04/16 19:18:16;;;;;;;30.80;14.90;;;;;;;4.64;72.46;97202.20;437180;1250;108679;-41
2024/04/16 19:28:22;;;;;;;33.50;18.20;;;;;;;4.58;72.68;97193.50;437409;1248;99122;-40
2024/04/16 19:38:35;;;;;;;32.90;18.20;;;;;;;4.54;72.91;97180.09;437327;1247;112357;-41
2024/04/16 19:48:40;;;;;;;39.60;16.80;;;;;;;4.45;73.15;97172.02;437315;1247;108647;-42
2024/04/16 19:58:46;;;;;;;32.50;17.50;;;;;;;4.27;73.47;97155.79;437276;1250;99231;-40
2024/04/16 20:08:51;;;;;;;29.40;15.10;;;;;;;4.22;73.78;97152.15;437379;1248;111800;-40
2024/04/16 20:18:58;;;;;;;29.00;13.90;;;;;;;4.26;73.93;97148.00;437226;1250;108691;-41
2024/04/16 20:29:07;;;;;;;25.60;13.60;;;;;;;4.31;74.18;97149.94;437150;1247;99263;-41
2024/04/16 20:39:13;;;;;;;30.20;15.80;;;;;;;4.30;74.33;97150.07;437177;1250;108763;-42
2024/04/16 20:49:18;;;;;;;32.90;15.90;;;;;;;4.20;74.44;97147.55;437418;1247;98054;-41
2024/04/16 20:59:28;;;;;;;41.20;17.70;;;;;;;4.05;74.57;97135.85;437343;1246;112667;-40
2024/04/16 21:09:33;;;;;;;29.10;14.20;;;;;;;4.04;74.58;97134.77;437187;1250;109220;-41
2024/04/16 21:19:38;;;;;;;23.10;11.40;;;;;;;4.12;74.67;97132.57;437224;1250;98139;-41
2024/04/16 21:29:43;;;;;;;24.10;12.40;;;;;;;4.24;74.82;97133.05;437248;1250;109051;-41
2024/04/16 21:39:48;;;;;;;26.60;12.40;;;;;;;4.27;74.95;97134.63;437265;1250;98005;-39
2024/04/16 21:49:54;;;;;;;23.40;11.10;;;;;;;4.22;75.03;97139.34;437292;1247;112217;-40
2024/04/16 22:00:04;;;;;;;19.20;8.00;;;;;;;4.28;75.27;97133.80;437323;1247;108355;-41
2024/04/16 22:10:09;;;;;;;15.70;7.90;;;;;;;4.36;75.17;97128.00;437320;1250;99249;-41
2024/04/16 22:20:14;;;;;;;16.00;7.80;;;;;;;4.39;75.26;97108.14;437535;1247;108471;-41
2024/04/16 22:30:20;;;;;;;27.40;9.50;;;;;;;4.30;75.34;97105.08;437404;1246;99230;-41
2024/04/16 22:40:24;;;;;;;14.90;6.40;;;;;;;4.25;75.53;97112.79;437187;1250;111433;-41
2024/04/16 22:50:30;;;;;;;17.70;8.10;;;;;;;4.18;75.50;97114.19;437264;1248;108612;-41
2024/04/16 23:00:38;;;;;;;16.30;8.20;;;;;;;4.13;75.79;97119.78;437432;1248;97992;-41
2024/04/16 23:10:47;;;;;;;15.10;7.10;;;;;;;3.99;75.83;97132.67;437507;1250;108638;-41
2024/04/16 23:20:52;;;;;;;16.10;8.10;;;;;;;3.90;76.19;97160.58;437311;1250;99352;-41
2024/04/16 23:30:57;;;;;;;10.50;7.10;;;;;;;3.91;76.12;97169.08;437384;1247;112978;-44
2024/04/16 23:41:02;;;;;;;14.70;7.20;;;;;;;3.88;76.20;97163.66;437449;1250;108229;-40
2024/04/16 23:51:07;;;;;;;15.10;8.00;;;;;;;3.93;76.41;97157.83;437423;1250;99215;-40
